createdAt,value
2017-12-04T00:00:46.754Z,95758.20
2017-12-04T00:02:27.508Z,95770.16
2017-12-04T00:04:11.694Z,95771.19
2017-12-04T00:05:51.564Z,95764.32
2017-12-04T00:07:31.462Z,95772.84
2017-12-04T00:09:10.966Z,95808.27
2017-12-04T00:10:49.299Z,95794.16
2017-12-04T00:12:27.878Z,95842.02
2017-12-04T00:14:07.378Z,95726.27
2017-12-04T00:15:46.678Z,95758.67
2017-12-04T00:17:26.983Z,95771.52
2017-12-04T00:19:06.584Z,95793.26
2017-12-04T00:20:45.392Z,95789.67
2017-12-04T00:22:29.302Z,95841.59
2017-12-04T00:24:13.710Z,95828.19
2017-12-04T00:27:25.388Z,95871.78
2017-12-04T00:29:06.798Z,95726.45
2017-12-04T00:30:45.392Z,95846.39
2017-12-04T00:32:24.790Z,95950.37
2017-12-04T00:34:03.895Z,96062.23
2017-12-04T00:35:42.292Z,96096.92
2017-12-04T00:37:23.576Z,96033.67
2017-12-04T00:40:42.982Z,96027.25
2017-12-04T00:42:22.667Z,95967.98
2017-12-04T00:44:01.687Z,95980.23
2017-12-04T00:45:40.570Z,95943.45
2017-12-04T00:47:20.564Z,95944.30
2017-12-04T00:48:59.975Z,95927.95
2017-12-04T00:50:40.665Z,95922.35
2017-12-04T00:52:20.878Z,95930.12
2017-12-04T00:53:59.923Z,95907.70
2017-12-04T00:55:46.978Z,95926.26
2017-12-04T00:57:26.781Z,95912.83
2017-12-04T00:59:05.978Z,95885.23
2017-12-04T01:00:46.879Z,95897.38
2017-12-04T01:02:25.867Z,95897.80
2017-12-04T01:04:04.773Z,95968.13
2017-12-04T01:05:44.162Z,95929.70
2017-12-04T01:07:23.474Z,95942.31
2017-12-04T01:09:03.109Z,95942.18
2017-12-04T01:10:43.465Z,95947.45
2017-12-04T01:12:23.178Z,95909.39
2017-12-04T01:14:04.275Z,95906.86
2017-12-04T01:15:44.359Z,95861.04
2017-12-04T01:17:24.358Z,95932.38
2017-12-04T01:19:08.279Z,95943.45
2017-12-04T01:20:47.473Z,95954.70
2017-12-04T01:22:26.772Z,95970.77
2017-12-04T01:24:06.186Z,95938.64
2017-12-04T01:25:44.571Z,95944.53
2017-12-04T01:27:24.875Z,95916.66
2017-12-04T01:29:04.498Z,95905.64
2017-12-04T01:30:44.767Z,95968.31
2017-12-04T01:32:27.875Z,96039.55
2017-12-04T01:34:18.583Z,96054.55
2017-12-04T01:35:58.516Z,96066.72
2017-12-04T01:37:38.377Z,96011.42
2017-12-04T01:39:16.782Z,96075.38
2017-12-04T01:40:55.769Z,96055.54
2017-12-04T01:42:35.995Z,96028.67
2017-12-04T01:44:23.078Z,96014.86
2017-12-04T01:46:03.381Z,96039.13
2017-12-04T01:47:46.877Z,96054.64
2017-12-04T01:49:27.377Z,96077.08
2017-12-04T01:51:06.681Z,95991.53
2017-12-04T01:52:46.788Z,95901.68
2017-12-04T01:54:26.247Z,95931.06
2017-12-04T01:56:06.782Z,95968.69
2017-12-04T01:57:46.305Z,95945.80
2017-12-04T01:59:24.904Z,95894.42
2017-12-04T02:01:04.978Z,95940.15
2017-12-04T02:02:46.585Z,95921.16
2017-12-04T02:04:25.882Z,95940.15
2017-12-04T02:06:05.080Z,95937.14
2017-12-04T02:07:43.988Z,95930.59
2017-12-04T02:09:23.593Z,95955.75
2017-12-04T02:11:02.140Z,95949.70
2017-12-04T02:12:41.289Z,96006.30
2017-12-04T02:14:20.391Z,96062.88
2017-12-04T02:15:59.706Z,96074.21
2017-12-04T02:17:40.301Z,96125.45
2017-12-04T02:19:22.912Z,96179.45
2017-12-04T02:21:03.432Z,96096.59
2017-12-04T02:22:42.918Z,96161.94
2017-12-04T02:24:21.746Z,96202.94
2017-12-04T02:26:00.818Z,96191.14
2017-12-04T02:27:40.336Z,96154.02
2017-12-04T02:29:19.347Z,95959.75
2017-12-04T02:30:58.421Z,95978.22
2017-12-04T02:32:39.739Z,96056.02
2017-12-04T02:34:20.126Z,96130.30
2017-12-04T02:35:59.834Z,96159.22
2017-12-04T02:37:39.131Z,96172.23
2017-12-04T02:39:19.338Z,96151.48
2017-12-04T02:40:59.235Z,96240.20
2017-12-04T02:42:39.251Z,96289.84
2017-12-04T02:44:18.543Z,96208.98
2017-12-04T02:45:58.942Z,96229.30
2017-12-04T02:47:38.137Z,96168.73
2017-12-04T02:49:18.437Z,96091.97
2017-12-04T02:50:57.440Z,96054.31
2017-12-04T02:52:39.088Z,95894.70
2017-12-04T02:54:20.866Z,95833.75
2017-12-04T02:56:00.658Z,95837.23
2017-12-04T02:57:39.968Z,95981.94
2017-12-04T02:59:20.178Z,96085.47
2017-12-04T03:00:59.567Z,96123.47
2017-12-04T03:02:38.548Z,96146.72
2017-12-04T03:04:18.245Z,96154.07
2017-12-04T03:05:57.991Z,96139.41
2017-12-04T03:07:37.045Z,96142.91
2017-12-04T03:09:17.579Z,96130.83
2017-12-04T03:10:56.380Z,96181.72
2017-12-04T03:12:36.336Z,96228.59
2017-12-04T03:14:14.837Z,96231.57
2017-12-04T03:17:39.536Z,96089.48
2017-12-04T03:19:19.544Z,96056.66
2017-12-04T03:20:58.839Z,96122.58
2017-12-04T03:22:39.555Z,96086.73
2017-12-04T03:24:18.891Z,96054.50
2017-12-04T03:26:01.056Z,96015.53
2017-12-04T03:27:40.774Z,95995.27
2017-12-04T03:29:20.756Z,95949.86
2017-12-04T03:31:01.639Z,95961.58
2017-12-04T03:32:40.569Z,95969.78
2017-12-04T03:34:21.034Z,96024.67
2017-12-04T03:36:00.399Z,96067.37
2017-12-04T03:37:40.270Z,96053.52
2017-12-04T03:39:19.467Z,96004.41
2017-12-04T03:41:00.075Z,95984.86
2017-12-04T03:42:38.880Z,96020.81
2017-12-04T03:44:23.385Z,96047.52
2017-12-04T03:46:02.586Z,96079.44
2017-12-04T03:47:41.259Z,96091.64
2017-12-04T03:49:20.189Z,96067.47
2017-12-04T03:50:58.985Z,96061.02
2017-12-04T03:52:37.480Z,96109.33
2017-12-04T03:54:15.991Z,96111.13
2017-12-04T03:55:54.480Z,96128.33
2017-12-04T03:57:35.905Z,96136.16
2017-12-04T03:59:14.382Z,96158.13
2017-12-04T04:00:53.872Z,96158.17
2017-12-04T04:02:33.999Z,96237.28
2017-12-04T04:04:17.179Z,96238.55
2017-12-04T04:05:56.496Z,96270.69
2017-12-04T04:07:35.302Z,96206.62
2017-12-04T04:09:14.370Z,96213.36
2017-12-04T04:10:54.584Z,96227.88
2017-12-04T04:12:34.776Z,96214.69
2017-12-04T04:14:13.513Z,96206.20
2017-12-04T04:15:53.280Z,96225.19
2017-12-04T04:17:31.887Z,96237.36
2017-12-04T04:19:11.285Z,96217.80
2017-12-04T04:20:50.691Z,96204.35
2017-12-04T04:22:29.079Z,96223.02
2017-12-04T04:24:07.694Z,96241.80
2017-12-04T04:25:48.779Z,96268.22
2017-12-04T04:27:27.687Z,96294.00
2017-12-04T04:29:06.596Z,96308.81
2017-12-04T04:30:45.390Z,96236.98
2017-12-04T04:32:23.884Z,96228.26
2017-12-04T04:34:09.970Z,96177.19
2017-12-04T04:35:49.161Z,96116.78
2017-12-04T04:37:27.662Z,96176.95
2017-12-04T04:39:06.352Z,96296.69
2017-12-04T04:40:47.354Z,96304.00
2017-12-04T04:42:27.649Z,96301.73
2017-12-04T04:45:52.056Z,96258.64
2017-12-04T04:49:05.748Z,96226.56
2017-12-04T04:50:46.155Z,96215.34
2017-12-04T04:52:25.774Z,96182.37
2017-12-04T04:54:04.482Z,96140.02
2017-12-04T04:55:42.754Z,96102.11
2017-12-04T04:57:21.949Z,96157.09
2017-12-04T04:59:00.861Z,96134.56
2017-12-04T05:00:39.963Z,96014.91
2017-12-04T05:02:18.445Z,96007.57
2017-12-04T05:03:56.945Z,96089.20
2017-12-04T05:05:38.944Z,96185.91
2017-12-04T05:07:17.256Z,96255.20
2017-12-04T05:08:56.353Z,96292.00
2017-12-04T05:10:38.260Z,96211.91
2017-12-04T05:12:18.781Z,96336.48
2017-12-04T05:13:57.353Z,96438.20
2017-12-04T05:15:36.955Z,96378.03
2017-12-04T05:17:16.459Z,96289.36
2017-12-04T05:18:56.054Z,96241.33
2017-12-04T05:20:36.381Z,96162.56
2017-12-04T05:22:15.098Z,96148.36
2017-12-04T05:23:53.960Z,96164.31
2017-12-04T05:25:33.850Z,96134.09
2017-12-04T05:27:12.445Z,96163.45
2017-12-04T05:30:36.686Z,96293.62
2017-12-04T05:32:28.411Z,96298.86
2017-12-04T05:34:07.232Z,96299.28
2017-12-04T05:35:45.434Z,96258.64
2017-12-04T05:37:24.441Z,96234.44
2017-12-04T05:39:03.141Z,96251.00
2017-12-04T05:40:41.441Z,96256.09
2017-12-04T05:42:19.949Z,96225.31
2017-12-04T05:44:01.047Z,96172.28
2017-12-04T05:45:41.555Z,96202.43
2017-12-04T05:47:20.359Z,96194.63
2017-12-04T05:48:58.858Z,96199.45
2017-12-04T05:50:38.582Z,96243.16
2017-12-04T05:52:21.473Z,96280.73
2017-12-04T05:54:02.176Z,96334.02
2017-12-04T05:55:40.676Z,96394.14
2017-12-04T05:57:20.151Z,96396.78
2017-12-04T05:58:58.851Z,96330.53
2017-12-04T06:00:37.336Z,96396.27
2017-12-04T06:02:16.269Z,96427.52
2017-12-04T06:03:54.336Z,96470.38
2017-12-04T06:05:34.035Z,96473.92
2017-12-04T06:07:13.435Z,96510.69
2017-12-04T06:08:52.752Z,96502.51
2017-12-04T06:10:32.245Z,96481.71
2017-12-04T06:12:11.446Z,96417.09
2017-12-04T06:13:52.682Z,96393.71
2017-12-04T06:15:37.767Z,96375.67
2017-12-04T06:17:17.655Z,96352.53
2017-12-04T06:18:56.363Z,96303.30
2017-12-04T06:22:33.693Z,96294.70
2017-12-04T06:24:12.472Z,96286.91
2017-12-04T06:25:51.877Z,96253.93
2017-12-04T06:27:31.284Z,96187.80
2017-12-04T06:29:10.880Z,96171.76
2017-12-04T06:30:50.885Z,96162.71
2017-12-04T06:32:30.690Z,96164.50
2017-12-04T06:34:09.026Z,96139.42
2017-12-04T06:35:47.998Z,96110.45
2017-12-04T06:37:27.311Z,96125.59
2017-12-04T06:39:06.508Z,96174.08
2017-12-04T06:40:44.708Z,96179.59
2017-12-04T06:42:23.531Z,96162.71
2017-12-04T06:44:01.918Z,96183.97
2017-12-04T06:45:40.215Z,96186.11
2017-12-04T06:47:19.734Z,96216.34
2017-12-04T06:49:00.214Z,96156.28
2017-12-04T06:50:39.301Z,96209.96
2017-12-04T06:52:19.902Z,96269.27
2017-12-04T06:54:00.706Z,96267.42
2017-12-04T06:55:40.717Z,96274.41
2017-12-04T06:57:19.089Z,96240.58
2017-12-04T06:58:58.702Z,96262.75
2017-12-04T07:00:38.790Z,96279.69
2017-12-04T07:02:17.189Z,96356.59
2017-12-04T07:03:56.379Z,96410.28
2017-12-04T07:05:35.493Z,96405.14
2017-12-04T07:07:14.181Z,96432.86
2017-12-04T07:08:52.500Z,96439.30
2017-12-04T07:10:32.489Z,96464.13
2017-12-04T07:12:11.684Z,96461.91
2017-12-04T07:13:50.489Z,96432.44
2017-12-04T07:15:29.294Z,96324.67
2017-12-04T07:17:08.589Z,96218.23
2017-12-04T07:18:47.489Z,96182.27
2017-12-04T07:20:26.789Z,96184.02
2017-12-04T07:22:18.985Z,96194.03
2017-12-04T07:23:59.690Z,96185.72
2017-12-04T07:25:39.985Z,96166.80
2017-12-04T07:27:18.166Z,96153.89
2017-12-04T07:28:57.069Z,96186.66
2017-12-04T07:30:35.384Z,96148.14
2017-12-04T07:32:14.058Z,96152.05
2017-12-04T07:33:52.568Z,96174.59
2017-12-04T07:35:31.149Z,96158.50
2017-12-04T07:37:09.248Z,96185.81
2017-12-04T07:38:48.253Z,96230.39
2017-12-04T07:40:27.257Z,96296.64
2017-12-04T07:42:05.350Z,96368.81
2017-12-04T07:43:43.745Z,96437.67
2017-12-04T07:45:22.187Z,96501.80
2017-12-04T07:47:00.951Z,96565.95
2017-12-04T07:48:39.244Z,96578.56
2017-12-04T07:50:17.751Z,96591.99
2017-12-04T07:52:02.350Z,96646.66
2017-12-04T07:53:42.043Z,96732.48
2017-12-04T07:55:25.346Z,96727.28
2017-12-04T07:57:08.652Z,96682.19
2017-12-04T07:58:51.060Z,96702.53
2017-12-04T08:00:30.165Z,96700.02
2017-12-04T08:02:10.795Z,96644.11
2017-12-04T08:03:52.673Z,96676.64
2017-12-04T08:05:35.219Z,96663.17
2017-12-04T08:07:16.386Z,96629.39
2017-12-04T08:08:56.814Z,96572.56
2017-12-04T08:10:36.703Z,96638.44
2017-12-04T08:12:17.005Z,96654.45
2017-12-04T08:13:55.701Z,96638.81
2017-12-04T08:15:48.429Z,96637.11
2017-12-04T08:17:33.733Z,96618.52
2017-12-04T08:19:16.703Z,96593.45
2017-12-04T08:20:57.000Z,96580.88
2017-12-04T08:22:37.902Z,96550.14
2017-12-04T08:24:17.404Z,96540.13
2017-12-04T08:26:13.904Z,96532.28
2017-12-04T08:27:53.409Z,96523.12
2017-12-04T08:29:32.709Z,96543.57
2017-12-04T08:31:12.319Z,96551.93
2017-12-04T08:32:53.056Z,96533.65
2017-12-04T08:34:31.998Z,96534.08
2017-12-04T08:36:13.143Z,96526.23
2017-12-04T08:37:52.389Z,96425.30
2017-12-04T08:39:35.453Z,96413.59
2017-12-04T08:41:15.510Z,96418.87
2017-12-04T08:42:55.592Z,96420.63
2017-12-04T08:44:35.084Z,96537.57
2017-12-04T08:46:13.678Z,96541.91
2017-12-04T08:47:52.483Z,96581.39
2017-12-04T08:49:30.890Z,96653.66
2017-12-04T08:51:09.395Z,96666.67
2017-12-04T08:52:47.482Z,96684.54
2017-12-04T08:54:26.582Z,96594.30
2017-12-04T08:56:06.909Z,96584.33
2017-12-04T08:57:46.088Z,96585.69
2017-12-04T08:59:25.078Z,96663.67
2017-12-04T09:01:05.942Z,96499.89
2017-12-04T09:02:48.780Z,96543.23
2017-12-04T09:04:28.083Z,96654.22
2017-12-04T09:06:07.402Z,96699.77
2017-12-04T09:07:47.807Z,96788.66
2017-12-04T09:09:29.513Z,96772.61
2017-12-04T09:11:09.004Z,96769.58
2017-12-04T09:12:47.410Z,96779.86
2017-12-04T09:14:26.513Z,96770.86
2017-12-04T09:16:05.027Z,96756.56
2017-12-04T09:17:44.641Z,96748.66
2017-12-04T09:19:22.824Z,96701.00
2017-12-04T09:21:01.235Z,96706.25
2017-12-04T09:22:40.532Z,96721.73
2017-12-04T09:24:19.127Z,96728.31
2017-12-04T09:25:58.366Z,96702.23
2017-12-04T09:27:38.130Z,96689.78
2017-12-04T09:29:16.738Z,96718.38
2017-12-04T09:30:55.331Z,96777.86
2017-12-04T09:32:34.729Z,96816.49
2017-12-04T09:34:14.271Z,96806.42
2017-12-04T09:35:54.942Z,96735.66
2017-12-04T09:37:35.048Z,96777.00
2017-12-04T09:39:13.734Z,96840.41
2017-12-04T09:40:52.022Z,96856.49
2017-12-04T09:42:30.924Z,96857.34
2017-12-04T09:44:09.045Z,96896.81
2017-12-04T09:45:48.217Z,96950.77
2017-12-04T09:47:27.312Z,97026.48
2017-12-04T09:49:06.319Z,97102.46
2017-12-04T09:50:45.708Z,97086.04
2017-12-04T09:52:24.812Z,97042.00
2017-12-04T09:54:03.106Z,97032.52
2017-12-04T09:55:43.609Z,96988.54
2017-12-04T09:57:23.115Z,96903.05
2017-12-04T09:59:01.304Z,96991.28
2017-12-04T10:00:40.908Z,97109.94
2017-12-04T10:02:20.405Z,97075.99
2017-12-04T10:04:02.622Z,97116.44
2017-12-04T10:05:42.218Z,97156.95
2017-12-04T10:07:21.935Z,97162.98
2017-12-04T10:09:00.134Z,97128.20
2017-12-04T10:10:38.402Z,97108.23
2017-12-04T10:12:16.902Z,97149.89
2017-12-04T10:13:54.898Z,97149.94
2017-12-04T10:15:34.114Z,97016.10
2017-12-04T10:17:13.615Z,96965.17
2017-12-04T10:20:35.197Z,96793.11
2017-12-04T10:22:13.595Z,96746.75
2017-12-04T10:25:19.691Z,96726.31
2017-12-04T10:26:58.101Z,96741.92
2017-12-04T10:28:36.608Z,96660.36
2017-12-04T10:30:15.411Z,96637.84
2017-12-04T10:31:54.840Z,96620.06
2017-12-04T10:33:34.927Z,96668.25
2017-12-04T10:35:13.603Z,96777.14
2017-12-04T10:36:52.305Z,96815.34
2017-12-04T10:38:29.510Z,96815.38
2017-12-04T10:40:09.395Z,96810.98
2017-12-04T10:41:49.195Z,96840.53
2017-12-04T10:43:27.705Z,96804.12
2017-12-04T10:45:13.202Z,96847.50
2017-12-04T10:46:50.035Z,96837.87
2017-12-04T10:48:26.542Z,96823.92
2017-12-04T10:50:05.626Z,96870.47
2017-12-04T10:51:44.525Z,96857.44
2017-12-04T10:53:23.138Z,96888.36
2017-12-04T10:55:01.674Z,96920.48
2017-12-04T10:56:47.960Z,96909.67
2017-12-04T10:58:31.449Z,96899.13
2017-12-04T11:00:11.467Z,96941.33
2017-12-04T11:01:51.370Z,96897.41
2017-12-04T11:03:30.971Z,96883.58
2017-12-04T11:05:09.760Z,96962.27
2017-12-04T11:06:49.163Z,96980.04
2017-12-04T11:08:28.369Z,97013.97
2017-12-04T11:10:08.573Z,97061.80
2017-12-04T11:11:47.529Z,97069.16
2017-12-04T11:13:28.191Z,97047.44
2017-12-04T11:15:07.682Z,97050.51
2017-12-04T11:16:47.077Z,97014.39
2017-12-04T11:18:25.780Z,96958.42
2017-12-04T11:20:05.286Z,96889.21
2017-12-04T11:21:46.667Z,96908.82
2017-12-04T11:23:24.850Z,96950.56
2017-12-04T11:25:02.125Z,96958.42
2017-12-04T11:26:40.248Z,96926.59
2017-12-04T11:28:20.446Z,96941.97
2017-12-04T11:29:59.072Z,96914.50
2017-12-04T11:31:41.439Z,96977.44
2017-12-04T11:33:22.629Z,97048.80
2017-12-04T11:35:05.140Z,97099.72
2017-12-04T11:36:44.146Z,97110.20
2017-12-04T11:38:22.636Z,97162.73
2017-12-04T11:40:01.060Z,97192.38
2017-12-04T11:41:41.334Z,97148.82
2017-12-04T11:43:21.339Z,97110.46
2017-12-04T11:45:00.934Z,97111.87
2017-12-04T11:46:40.742Z,97158.41
2017-12-04T11:48:17.724Z,97157.94
2017-12-04T11:49:54.342Z,97137.92
2017-12-04T11:51:34.021Z,97169.78
2017-12-04T11:53:14.052Z,97174.15
2017-12-04T11:54:53.231Z,97198.88
2017-12-04T11:56:30.169Z,97210.69
2017-12-04T11:58:06.760Z,97213.30
2017-12-04T11:59:43.986Z,97255.88
2017-12-04T12:01:23.675Z,97242.83
2017-12-04T12:03:03.775Z,97281.99
2017-12-04T12:04:42.510Z,97223.31
2017-12-04T12:06:20.994Z,97244.20
2017-12-04T12:07:57.707Z,97269.06
2017-12-04T12:09:35.090Z,97292.09
2017-12-04T12:11:14.688Z,97332.52
2017-12-04T12:12:56.102Z,97367.46
2017-12-04T12:14:35.499Z,97395.30
2017-12-04T12:16:15.295Z,97369.52
2017-12-04T12:17:53.809Z,97401.44
2017-12-04T12:19:32.302Z,97383.05
2017-12-04T12:21:11.622Z,97343.95
2017-12-04T12:22:50.508Z,97308.20
2017-12-04T12:24:29.911Z,97294.75
2017-12-04T12:26:08.414Z,97308.63
2017-12-04T12:27:47.930Z,97288.97
2017-12-04T12:29:27.010Z,97259.56
2017-12-04T12:31:05.909Z,97198.53
2017-12-04T12:32:45.506Z,97199.44
2017-12-04T12:34:24.700Z,97189.34
2017-12-04T12:36:04.103Z,97189.50
2017-12-04T12:37:43.240Z,97228.23
2017-12-04T12:39:21.992Z,97246.00
2017-12-04T12:41:01.198Z,97255.62
2017-12-04T12:42:39.910Z,97279.12
2017-12-04T12:44:21.004Z,97324.80
2017-12-04T12:45:59.496Z,97371.87
2017-12-04T12:47:39.603Z,97398.42
2017-12-04T12:49:19.195Z,97366.22
2017-12-04T12:50:59.411Z,97254.25
2017-12-04T12:52:37.900Z,97208.59
2017-12-04T12:54:19.201Z,97182.58
2017-12-04T12:55:57.361Z,97184.24
2017-12-04T12:57:38.008Z,97140.35
2017-12-04T12:59:16.196Z,97190.78
2017-12-04T13:00:55.697Z,97247.83
2017-12-04T13:02:36.297Z,97287.77
2017-12-04T13:04:15.415Z,97339.58
2017-12-04T13:05:57.252Z,97307.34
2017-12-04T13:07:35.312Z,97336.58
2017-12-04T13:09:16.199Z,97301.72
2017-12-04T13:10:56.499Z,97257.69
2017-12-04T13:12:36.593Z,97301.38
2017-12-04T13:14:16.393Z,97344.46
2017-12-04T13:15:55.494Z,97331.39
2017-12-04T13:17:35.232Z,97363.61
2017-12-04T13:19:17.796Z,97372.81
2017-12-04T13:20:56.998Z,97389.27
2017-12-04T13:22:35.609Z,97365.83
2017-12-04T13:24:17.202Z,97365.83
2017-12-04T13:25:56.561Z,97377.17
2017-12-04T13:27:36.196Z,97363.61
2017-12-04T13:29:14.295Z,97367.97
2017-12-04T13:30:54.101Z,97354.91
2017-12-04T13:32:46.298Z,97328.23
2017-12-04T13:34:42.623Z,97320.05
2017-12-04T13:36:57.008Z,97327.07
2017-12-04T13:38:37.605Z,97325.31
2017-12-04T13:40:16.509Z,97266.11
2017-12-04T13:41:53.429Z,97240.00
2017-12-04T13:43:31.395Z,97283.14
2017-12-04T13:45:12.739Z,97328.36
2017-12-04T13:46:51.698Z,97316.97
2017-12-04T13:48:32.199Z,97303.09
2017-12-04T13:50:10.990Z,97326.17
2017-12-04T13:51:51.003Z,97315.69
2017-12-04T13:53:30.500Z,97320.05
2017-12-04T13:55:08.897Z,97318.81
2017-12-04T13:56:47.694Z,97358.45
2017-12-04T13:58:28.889Z,97365.88
2017-12-04T14:00:08.900Z,97380.65
2017-12-04T14:01:48.502Z,97393.28
2017-12-04T14:03:31.223Z,97412.13
2017-12-04T14:05:09.150Z,97346.60
2017-12-04T14:06:45.738Z,97289.27
2017-12-04T14:08:23.102Z,97228.75
2017-12-04T14:10:01.696Z,97243.55
2017-12-04T14:11:50.178Z,97293.20
2017-12-04T14:13:39.213Z,97384.63
2017-12-04T14:15:21.819Z,97422.55
2017-12-04T14:17:01.116Z,97385.09
2017-12-04T14:18:42.039Z,97340.30
2017-12-04T14:20:22.529Z,97393.76
2017-12-04T14:22:00.836Z,97430.81
2017-12-04T14:23:42.040Z,97460.81
2017-12-04T14:25:20.742Z,97415.09
2017-12-04T14:27:00.443Z,97399.84
2017-12-04T14:28:39.558Z,97399.45
2017-12-04T14:30:21.467Z,97435.66
2017-12-04T14:32:01.201Z,97445.64
2017-12-04T14:33:41.373Z,97439.52
2017-12-04T14:35:20.970Z,97418.69
2017-12-04T14:37:01.875Z,97428.24
2017-12-04T14:38:42.488Z,97524.54
2017-12-04T14:40:22.079Z,97549.06
2017-12-04T14:42:01.009Z,97547.22
2017-12-04T14:43:40.517Z,97530.64
2017-12-04T14:45:22.973Z,97610.95
2017-12-04T14:47:03.772Z,97658.09
2017-12-04T14:48:43.974Z,97653.23
2017-12-04T14:50:24.975Z,97596.97
2017-12-04T14:52:03.953Z,97493.55
2017-12-04T14:53:44.164Z,97456.61
2017-12-04T14:55:23.352Z,97479.66
2017-12-04T14:57:04.383Z,97466.12
2017-12-04T14:58:42.964Z,97463.63
2017-12-04T15:00:22.853Z,97510.19
2017-12-04T15:02:01.947Z,97542.42
2017-12-04T15:03:42.766Z,97417.32
2017-12-04T15:05:21.849Z,97287.47
2017-12-04T15:07:06.017Z,97289.73
2017-12-04T15:08:47.850Z,97299.25
2017-12-04T15:10:26.801Z,97279.30
2017-12-04T15:12:06.248Z,97271.54
2017-12-04T15:13:45.253Z,97340.81
2017-12-04T15:15:24.579Z,97379.45
2017-12-04T15:17:04.364Z,97366.42
2017-12-04T15:18:43.552Z,97423.10
2017-12-04T15:20:24.953Z,97492.73
2017-12-04T15:22:04.948Z,97586.08
2017-12-04T15:23:45.058Z,97608.72
2017-12-04T15:25:24.048Z,97597.86
2017-12-04T15:27:03.648Z,97534.58
2017-12-04T15:28:43.344Z,97505.30
2017-12-04T15:30:23.344Z,97511.52
2017-12-04T15:32:04.145Z,97531.56
2017-12-04T15:33:44.336Z,97554.29
2017-12-04T15:36:57.568Z,97539.42
2017-12-04T15:38:36.960Z,97508.08
2017-12-04T15:40:15.651Z,97467.06
2017-12-04T15:41:54.440Z,97432.22
2017-12-04T15:43:33.636Z,97384.28
2017-12-04T15:45:21.688Z,97390.92
2017-12-04T15:47:03.363Z,97481.08
2017-12-04T15:48:46.551Z,97493.20
2017-12-04T15:50:27.340Z,97527.28
2017-12-04T15:52:06.945Z,97547.34
2017-12-04T15:53:46.845Z,97566.52
2017-12-04T15:55:28.265Z,97540.75
2017-12-04T15:57:09.470Z,97527.62
2017-12-04T15:58:53.179Z,97380.44
2017-12-04T16:00:35.915Z,97400.98
2017-12-04T16:02:15.579Z,97435.73
2017-12-04T16:05:48.096Z,97380.81
2017-12-04T16:07:31.663Z,97419.20
2017-12-04T16:09:15.919Z,97354.31
2017-12-04T16:10:58.310Z,97248.05
2017-12-04T16:12:39.457Z,97138.89
2017-12-04T16:14:19.814Z,97154.08
2017-12-04T16:16:04.805Z,97161.88
2017-12-04T16:19:22.335Z,97226.81
2017-12-04T16:21:03.801Z,97265.89
2017-12-04T16:22:45.345Z,97304.59
2017-12-04T16:24:25.754Z,97297.58
2017-12-04T16:26:05.334Z,97297.58
2017-12-04T16:27:46.018Z,97264.14
2017-12-04T16:29:31.623Z,97245.43
2017-12-04T16:31:15.520Z,97289.44
2017-12-04T16:32:58.266Z,97340.34
2017-12-04T16:34:48.627Z,97344.28
2017-12-04T16:36:27.833Z,97323.30
2017-12-04T16:38:07.210Z,97316.84
2017-12-04T16:39:50.458Z,97294.57
2017-12-04T16:41:40.320Z,97281.52
2017-12-04T16:43:23.509Z,97201.57
2017-12-04T16:45:06.308Z,97174.10
2017-12-04T16:46:46.713Z,97175.86
2017-12-04T16:48:34.927Z,97227.24
2017-12-04T16:50:16.721Z,97272.44
2017-12-04T16:51:57.253Z,97272.82
2017-12-04T16:53:37.017Z,97352.55
2017-12-04T16:55:15.708Z,97385.66
2017-12-04T16:56:55.018Z,97386.55
2017-12-04T16:58:33.945Z,97451.94
2017-12-04T17:00:18.717Z,97456.77
2017-12-04T17:01:59.219Z,97441.91
2017-12-04T17:03:39.240Z,97434.02
2017-12-04T17:05:18.610Z,97449.33
2017-12-04T17:06:57.013Z,97484.93
2017-12-04T17:08:36.616Z,97477.17
2017-12-04T17:10:18.126Z,97484.59
2017-12-04T17:11:56.231Z,97480.69
2017-12-04T17:13:35.125Z,97432.34
2017-12-04T17:15:14.883Z,97369.90
2017-12-04T17:16:56.032Z,97385.23
2017-12-04T17:18:34.516Z,97390.92
2017-12-04T17:21:49.339Z,97436.67
2017-12-04T17:23:29.628Z,97413.92
2017-12-04T17:25:10.219Z,97433.16
2017-12-04T17:26:51.750Z,97442.29
2017-12-04T17:28:31.021Z,97352.98
2017-12-04T17:30:10.522Z,97290.67
2017-12-04T17:31:49.421Z,97244.63
2017-12-04T17:33:29.420Z,97273.34
2017-12-04T17:35:13.325Z,97347.79
2017-12-04T17:36:56.685Z,97379.63
2017-12-04T17:38:41.323Z,97391.73
2017-12-04T17:40:20.956Z,97410.07
2017-12-04T17:42:09.607Z,97462.00
2017-12-04T17:43:50.027Z,97535.17
2017-12-04T17:45:34.660Z,97611.11
2017-12-04T17:47:16.803Z,97621.06
2017-12-04T17:48:56.100Z,97609.78
2017-12-04T17:50:37.897Z,97584.36
2017-12-04T17:52:30.389Z,97491.57
2017-12-04T17:54:25.707Z,97405.28
2017-12-04T17:56:32.955Z,97355.13
2017-12-04T17:58:20.188Z,97281.56
2017-12-04T18:00:00.309Z,97278.59
2017-12-04T18:01:42.486Z,97257.71
2017-12-04T18:04:08.708Z,97236.79
2017-12-04T18:05:52.375Z,97209.87
2017-12-04T18:07:33.597Z,97189.84
2017-12-04T18:09:19.692Z,97206.41
2017-12-04T18:11:03.531Z,97289.48
2017-12-04T18:12:43.705Z,97335.16
2017-12-04T18:14:23.518Z,97398.41
2017-12-04T18:16:07.795Z,97414.02
2017-12-04T18:17:47.393Z,97433.16
2017-12-04T18:19:32.784Z,97474.13
2017-12-04T18:21:14.882Z,97500.32
2017-12-04T18:23:01.389Z,97482.44
2017-12-04T18:24:39.498Z,97439.72
2017-12-04T18:26:16.939Z,97420.99
2017-12-04T18:27:55.378Z,97394.48
2017-12-04T18:31:38.894Z,97482.48
2017-12-04T18:33:19.102Z,97439.80
2017-12-04T18:34:58.519Z,97343.94
2017-12-04T18:36:38.615Z,97287.25
2017-12-04T18:38:17.433Z,97323.47
2017-12-04T18:39:57.336Z,97316.02
2017-12-04T18:41:38.227Z,97282.97
2017-12-04T18:43:22.346Z,97268.93
2017-12-04T18:45:02.439Z,97263.75
2017-12-04T18:46:43.339Z,97269.44
2017-12-04T18:48:26.841Z,97281.25
2017-12-04T18:50:09.441Z,97322.57
2017-12-04T18:51:49.154Z,97352.67
2017-12-04T18:53:30.006Z,97410.97
2017-12-04T18:55:09.855Z,97439.80
2017-12-04T18:56:50.049Z,97478.50
2017-12-04T18:58:31.457Z,97521.74
2017-12-04T19:00:11.249Z,97533.45
2017-12-04T19:01:48.236Z,97539.63
2017-12-04T19:03:28.577Z,97545.75
2017-12-04T19:05:07.774Z,97550.98
2017-12-04T19:06:47.470Z,97540.91
2017-12-04T19:08:31.058Z,97500.79
2017-12-04T19:10:08.545Z,97462.86
2017-12-04T19:11:45.382Z,97479.56
2017-12-04T19:13:24.083Z,97518.74
2017-12-04T19:15:04.977Z,97519.09
2017-12-04T19:16:44.476Z,97506.02
2017-12-04T19:18:25.288Z,97523.00
2017-12-04T19:20:09.100Z,97493.03
2017-12-04T19:21:50.586Z,97516.13
2017-12-04T19:23:33.807Z,97414.48
2017-12-04T19:25:13.698Z,97296.97
2017-12-04T19:26:50.769Z,97303.09
2017-12-04T19:28:40.947Z,97262.55
2017-12-04T19:30:22.220Z,97243.50
2017-12-04T19:32:04.817Z,97227.33
2017-12-04T19:33:45.505Z,97191.25
2017-12-04T19:35:27.007Z,97251.72
2017-12-04T19:37:06.739Z,97283.05
2017-12-04T19:40:17.661Z,97269.91
2017-12-04T19:41:58.091Z,97259.55
2017-12-04T19:43:38.321Z,97262.05
2017-12-04T19:45:22.695Z,97168.20
2017-12-04T19:47:19.079Z,97068.17
2017-12-04T19:49:04.858Z,97052.36
2017-12-04T19:50:46.327Z,97064.20
2017-12-04T19:52:29.993Z,97109.09
2017-12-04T19:54:13.368Z,97152.58
2017-12-04T19:55:54.838Z,97204.27
2017-12-04T19:57:33.246Z,97238.20
2017-12-04T19:59:12.582Z,97235.59
2017-12-04T20:00:57.109Z,97222.54
2017-12-04T20:02:39.136Z,97202.09
2017-12-04T20:04:21.495Z,97193.27